createdAt,value
2022-10-09T00:02:09.318Z,67.91
2022-10-09T00:05:15.573Z,67.93
2022-10-09T00:08:21.704Z,67.35
2022-10-09T00:11:27.567Z,66.97
2022-10-09T00:14:33.829Z,66.94
2022-10-09T00:17:39.938Z,66.82
2022-10-09T00:20:45.608Z,66.81
2022-10-09T00:23:53.036Z,67.28
2022-10-09T00:26:59.231Z,67.47
2022-10-09T00:30:06.039Z,67.66
2022-10-09T00:33:12.140Z,67.54
2022-10-09T00:36:17.583Z,67.08
2022-10-09T00:39:23.767Z,66.91
2022-10-09T00:42:30.024Z,66.89
2022-10-09T00:45:36.387Z,66.75
2022-10-09T00:48:42.488Z,66.60
2022-10-09T00:51:48.817Z,66.64
2022-10-09T00:54:56.619Z,66.76
2022-10-09T00:58:03.726Z,66.49
2022-10-09T01:01:09.917Z,66.70
2022-10-09T01:04:16.470Z,66.73
2022-10-09T01:07:30.889Z,66.83
2022-10-09T01:10:43.118Z,66.90
2022-10-09T01:13:59.306Z,67.41
2022-10-09T01:17:15.203Z,67.43
2022-10-09T01:20:27.859Z,67.28
2022-10-09T01:24:10.568Z,67.34
2022-10-09T01:27:20.158Z,67.20
2022-10-09T01:30:26.203Z,66.65
2022-10-09T01:33:31.999Z,66.14
2022-10-09T01:36:36.970Z,66.03
2022-10-09T01:39:45.911Z,66.13
2022-10-09T01:42:52.214Z,66.04
2022-10-09T01:46:25.157Z,65.91
2022-10-09T01:49:49.844Z,65.61
2022-10-09T01:53:00.588Z,65.69
2022-10-09T01:56:14.328Z,65.74
2022-10-09T01:59:21.923Z,65.78
2022-10-09T02:02:29.512Z,65.57
2022-10-09T02:05:36.916Z,65.45
2022-10-09T02:08:45.947Z,65.14
2022-10-09T02:11:56.924Z,64.73
2022-10-09T02:15:03.192Z,64.61
2022-10-09T02:18:15.000Z,64.62
2022-10-09T02:21:30.593Z,63.58
2022-10-09T02:24:39.090Z,63.31
2022-10-09T02:27:45.473Z,62.85
2022-10-09T02:30:58.583Z,63.07
2022-10-09T02:34:07.003Z,63.20
2022-10-09T02:37:13.415Z,63.24
2022-10-09T02:40:19.619Z,63.01
2022-10-09T02:43:25.979Z,62.58
2022-10-09T02:46:32.093Z,62.04
2022-10-09T02:49:38.376Z,61.88
2022-10-09T02:52:42.962Z,61.99
2022-10-09T02:55:49.011Z,61.58
2022-10-09T02:58:55.499Z,61.34
2022-10-09T03:02:01.945Z,60.98
2022-10-09T03:05:09.579Z,61.09
2022-10-09T03:08:16.213Z,60.98
2022-10-09T03:11:24.632Z,61.34
2022-10-09T03:14:30.687Z,61.74
2022-10-09T03:17:36.762Z,61.68
2022-10-09T03:20:42.900Z,61.53
2022-10-09T03:23:47.469Z,61.47
2022-10-09T03:26:53.535Z,61.56
2022-10-09T03:29:59.862Z,61.29
2022-10-09T03:33:06.026Z,61.33
2022-10-09T03:36:11.075Z,61.26
2022-10-09T03:39:17.127Z,61.28
2022-10-09T03:42:23.267Z,61.21
2022-10-09T03:45:27.772Z,61.13
2022-10-09T03:48:33.931Z,61.23
2022-10-09T03:51:38.446Z,61.19
2022-10-09T03:54:44.576Z,61.42
2022-10-09T03:57:49.123Z,61.53
2022-10-09T04:00:56.148Z,61.67
2022-10-09T04:04:02.399Z,61.72
2022-10-09T04:07:06.902Z,61.81
2022-10-09T04:10:13.389Z,61.97
2022-10-09T04:13:19.614Z,61.96
2022-10-09T04:16:24.103Z,61.98
2022-10-09T04:19:30.210Z,62.17
2022-10-09T04:22:36.351Z,62.28
2022-10-09T04:25:42.335Z,62.34
2022-10-09T04:28:48.533Z,62.50
2022-10-09T04:31:53.110Z,62.61
2022-10-09T04:34:59.376Z,62.79
2022-10-09T04:38:05.382Z,62.73
2022-10-09T04:41:11.638Z,62.82
2022-10-09T04:44:17.895Z,62.89
2022-10-09T04:47:24.101Z,62.67
2022-10-09T04:50:28.602Z,62.78
2022-10-09T04:53:35.082Z,62.93
2022-10-09T04:56:41.308Z,62.90
2022-10-09T04:59:45.766Z,62.82
2022-10-09T05:02:52.246Z,62.89
2022-10-09T05:06:04.084Z,62.86
2022-10-09T05:09:10.583Z,62.75
2022-10-09T05:12:17.057Z,62.78
2022-10-09T05:15:23.528Z,62.89
2022-10-09T05:18:29.902Z,63.04
2022-10-09T05:21:37.159Z,63.13
2022-10-09T05:24:43.256Z,63.21
2022-10-09T05:27:49.479Z,63.20
2022-10-09T05:30:53.958Z,63.18
2022-10-09T05:34:01.853Z,63.32
2022-10-09T05:37:08.024Z,63.17
2022-10-09T05:40:12.739Z,63.11
2022-10-09T05:43:18.850Z,63.21
2022-10-09T05:46:24.401Z,63.07
2022-10-09T05:49:30.577Z,63.23
2022-10-09T05:52:36.376Z,63.21
2022-10-09T05:55:40.917Z,63.39
2022-10-09T05:58:50.948Z,63.35
2022-10-09T06:01:57.148Z,63.43
2022-10-09T06:05:01.647Z,63.41
2022-10-09T06:08:07.905Z,63.73
2022-10-09T06:11:16.179Z,63.71
2022-10-09T06:14:23.220Z,63.86
2022-10-09T06:17:29.351Z,63.96
2022-10-09T06:20:33.992Z,64.05
2022-10-09T06:23:40.379Z,64.13
2022-10-09T06:26:46.691Z,64.28
2022-10-09T06:29:53.480Z,64.39
2022-10-09T06:32:59.627Z,64.72
2022-10-09T06:36:10.102Z,64.89
2022-10-09T06:39:17.040Z,65.08
2022-10-09T06:42:23.073Z,66.09
2022-10-09T06:45:29.342Z,65.85
2022-10-09T06:48:36.760Z,65.37
2022-10-09T06:51:42.902Z,64.89
2022-10-09T06:54:47.451Z,65.02
2022-10-09T06:57:53.583Z,64.32
2022-10-09T07:01:05.035Z,64.41
2022-10-09T07:04:14.554Z,64.47
2022-10-09T07:07:20.837Z,63.60
2022-10-09T07:10:25.501Z,63.10
2022-10-09T07:13:32.455Z,63.04
2022-10-09T07:16:40.251Z,63.00
2022-10-09T07:19:46.348Z,62.96
2022-10-09T07:22:52.499Z,62.34
2022-10-09T07:25:56.991Z,62.54
2022-10-09T07:29:03.202Z,62.08
2022-10-09T07:32:10.507Z,61.21
2022-10-09T07:35:17.182Z,61.53
2022-10-09T07:38:24.554Z,61.04
2022-10-09T07:41:31.784Z,61.27
2022-10-09T07:44:38.226Z,61.22
2022-10-09T07:47:44.396Z,60.53
2022-10-09T07:50:49.024Z,60.41
2022-10-09T07:53:56.520Z,61.09
2022-10-09T07:57:02.766Z,58.77
2022-10-09T08:00:11.259Z,58.36
2022-10-09T08:03:17.456Z,60.49
2022-10-09T08:06:22.304Z,61.65
2022-10-09T08:09:28.546Z,62.78
2022-10-09T08:12:34.731Z,61.77
2022-10-09T08:15:43.142Z,60.73
2022-10-09T08:18:49.635Z,58.90
2022-10-09T08:21:57.341Z,58.70
2022-10-09T08:25:07.312Z,59.90
2022-10-09T08:28:13.433Z,61.65
2022-10-09T08:31:18.850Z,61.49
2022-10-09T08:34:25.163Z,60.64
2022-10-09T08:37:29.675Z,59.78
2022-10-09T08:40:46.606Z,60.53
2022-10-09T08:43:58.436Z,59.45
2022-10-09T08:47:10.401Z,56.94
2022-10-09T08:50:23.003Z,57.88
2022-10-09T08:53:37.350Z,58.61
2022-10-09T08:56:43.643Z,59.41
2022-10-09T08:59:50.196Z,58.80
2022-10-09T09:03:19.078Z,60.52
2022-10-09T09:06:38.600Z,61.05
2022-10-09T09:09:53.743Z,60.54
2022-10-09T09:13:07.897Z,59.97
2022-10-09T09:16:23.802Z,57.05
2022-10-09T09:19:39.690Z,57.22
2022-10-09T09:22:49.746Z,57.24
2022-10-09T09:25:56.457Z,58.45
2022-10-09T09:29:06.264Z,58.85
2022-10-09T09:32:20.636Z,60.81
2022-10-09T09:35:35.999Z,61.55
2022-10-09T09:39:03.225Z,60.63
2022-10-09T09:42:16.817Z,60.20
2022-10-09T09:45:25.311Z,57.59
2022-10-09T09:48:36.795Z,56.74
2022-10-09T09:51:43.302Z,57.45
2022-10-09T09:54:50.832Z,58.97
2022-10-09T09:58:03.796Z,58.35
2022-10-09T10:01:21.119Z,57.47
2022-10-09T10:04:29.357Z,58.13
2022-10-09T10:07:37.097Z,57.81
2022-10-09T10:10:48.107Z,58.70
2022-10-09T10:13:54.380Z,58.37
2022-10-09T10:17:02.512Z,57.95
2022-10-09T10:20:12.538Z,58.37
2022-10-09T10:23:37.027Z,57.20
2022-10-09T10:26:48.786Z,59.20
2022-10-09T10:29:59.641Z,58.29
2022-10-09T10:33:14.483Z,58.46
2022-10-09T10:36:20.773Z,58.26
2022-10-09T10:39:37.235Z,57.96
2022-10-09T10:42:56.076Z,57.61
2022-10-09T10:46:13.595Z,57.39
2022-10-09T10:49:23.380Z,57.90
2022-10-09T10:52:46.035Z,56.73
2022-10-09T10:55:59.224Z,56.53
2022-10-09T10:59:29.296Z,54.95
2022-10-09T11:02:57.822Z,55.50
2022-10-09T11:06:12.687Z,55.79
2022-10-09T11:09:26.067Z,55.99
2022-10-09T11:12:48.211Z,55.31
2022-10-09T11:16:07.531Z,54.66
2022-10-09T11:19:45.402Z,56.07
2022-10-09T11:23:10.800Z,54.08
2022-10-09T11:26:27.323Z,55.55
2022-10-09T11:29:38.615Z,55.73
2022-10-09T11:32:55.818Z,55.81
2022-10-09T11:36:06.996Z,55.79
2022-10-09T11:39:18.317Z,57.24
2022-10-09T11:42:26.393Z,56.93
2022-10-09T11:45:42.987Z,57.62
2022-10-09T11:48:55.515Z,57.48
2022-10-09T11:52:09.658Z,55.34
2022-10-09T11:55:25.083Z,55.09
2022-10-09T11:58:31.300Z,54.78
2022-10-09T12:01:40.045Z,52.87
2022-10-09T12:04:54.856Z,52.68
2022-10-09T12:08:15.413Z,53.55
2022-10-09T12:11:25.632Z,53.92
2022-10-09T12:14:32.536Z,54.93
2022-10-09T12:17:47.788Z,54.98
2022-10-09T12:20:57.022Z,54.08
2022-10-09T12:24:03.796Z,51.42
2022-10-09T12:27:18.798Z,52.81
2022-10-09T12:30:27.129Z,52.56
2022-10-09T12:33:39.830Z,52.91
2022-10-09T12:36:45.988Z,52.26
2022-10-09T12:39:52.724Z,52.05
2022-10-09T12:43:01.842Z,51.12
2022-10-09T12:46:08.110Z,51.74
2022-10-09T12:49:22.804Z,51.19
2022-10-09T12:52:29.412Z,50.84
2022-10-09T12:55:37.607Z,51.10
2022-10-09T12:58:44.688Z,51.22
2022-10-09T13:01:52.482Z,50.96
2022-10-09T13:05:02.277Z,51.25
2022-10-09T13:08:22.462Z,51.19
2022-10-09T13:11:34.449Z,51.10
2022-10-09T13:14:46.602Z,49.48
2022-10-09T13:17:52.777Z,49.25
2022-10-09T13:21:07.655Z,48.54
2022-10-09T13:24:14.479Z,49.16
2022-10-09T13:27:21.339Z,48.81
2022-10-09T13:30:28.469Z,49.35
2022-10-09T13:33:34.803Z,49.68
2022-10-09T13:36:40.981Z,49.52
2022-10-09T13:39:47.267Z,50.06
2022-10-09T13:42:56.984Z,50.64
2022-10-09T13:46:03.053Z,50.63
2022-10-09T13:49:09.187Z,50.58
2022-10-09T13:52:15.323Z,50.79
2022-10-09T13:55:21.685Z,48.41
2022-10-09T13:58:27.886Z,48.66
2022-10-09T14:01:34.048Z,49.59
2022-10-09T14:04:40.181Z,49.82
2022-10-09T14:07:46.363Z,49.87
2022-10-09T14:10:52.467Z,50.06
2022-10-09T14:13:59.625Z,50.64
2022-10-09T14:17:05.842Z,50.80
2022-10-09T14:20:12.786Z,50.65
2022-10-09T14:23:19.026Z,51.22
2022-10-09T14:26:25.917Z,50.56
2022-10-09T14:29:32.075Z,51.34
2022-10-09T14:32:38.139Z,51.06
2022-10-09T14:35:42.591Z,50.87
2022-10-09T14:38:49.881Z,52.38
2022-10-09T14:41:55.984Z,51.38
2022-10-09T14:45:00.525Z,50.73
2022-10-09T14:48:07.060Z,51.11
2022-10-09T14:51:15.167Z,51.51
2022-10-09T14:54:21.510Z,51.13
2022-10-09T14:57:30.233Z,51.45
2022-10-09T15:00:39.035Z,51.96
2022-10-09T15:03:43.795Z,53.09
2022-10-09T15:06:50.103Z,53.09
2022-10-09T15:09:57.040Z,53.18
2022-10-09T15:13:03.203Z,54.95
2022-10-09T15:16:08.770Z,56.25
2022-10-09T15:19:14.999Z,56.02
2022-10-09T15:22:20.978Z,57.53
2022-10-09T15:25:31.558Z,58.38
2022-10-09T15:28:38.499Z,58.91
2022-10-09T15:31:44.897Z,59.17
2022-10-09T15:34:51.132Z,59.86
2022-10-09T15:37:57.213Z,60.79
2022-10-09T15:41:01.854Z,61.44
2022-10-09T15:44:09.792Z,61.54
2022-10-09T15:47:16.525Z,63.73
2022-10-09T15:50:23.006Z,64.97
2022-10-09T15:53:27.552Z,64.37
2022-10-09T15:56:38.757Z,63.58
2022-10-09T15:59:46.174Z,62.12
2022-10-09T16:02:52.580Z,60.37
2022-10-09T16:06:02.820Z,60.19
2022-10-09T16:09:09.051Z,61.11
2022-10-09T16:12:15.471Z,61.90
2022-10-09T16:15:21.622Z,63.77
2022-10-09T16:18:26.394Z,64.38
2022-10-09T16:21:33.264Z,63.66
2022-10-09T16:24:39.483Z,62.48
2022-10-09T16:27:43.941Z,61.60
2022-10-09T16:30:50.084Z,60.91
2022-10-09T16:33:54.527Z,59.62
2022-10-09T16:37:02.397Z,59.95
2022-10-09T16:40:10.290Z,61.24
2022-10-09T16:43:17.019Z,63.59
2022-10-09T16:46:25.214Z,64.54
2022-10-09T16:49:31.448Z,63.53
2022-10-09T16:52:36.010Z,62.78
2022-10-09T16:55:42.138Z,62.79
2022-10-09T16:58:46.607Z,61.77
2022-10-09T17:01:53.388Z,61.50
2022-10-09T17:04:59.591Z,60.99
2022-10-09T17:08:04.091Z,59.64
2022-10-09T17:11:13.115Z,59.61
2022-10-09T17:14:19.266Z,60.99
2022-10-09T17:17:23.814Z,62.04
2022-10-09T17:20:30.031Z,63.91
2022-10-09T17:23:34.492Z,65.30
2022-10-09T17:26:40.599Z,64.60
2022-10-09T17:29:46.688Z,63.35
2022-10-09T17:32:53.097Z,62.61
2022-10-09T17:46:58.032Z,63.17
2022-10-09T17:50:02.794Z,62.98
2022-10-09T17:53:09.040Z,62.64
2022-10-09T17:56:13.589Z,61.92
2022-10-09T17:59:19.809Z,61.87
2022-10-09T18:02:24.280Z,61.35
2022-10-09T18:05:30.573Z,61.20
2022-10-09T18:08:37.006Z,61.01
2022-10-09T18:11:43.170Z,60.73
2022-10-09T18:14:47.731Z,60.72
2022-10-09T18:17:53.814Z,60.75
2022-10-09T18:21:06.092Z,60.46
2022-10-09T18:24:12.376Z,60.29
2022-10-09T18:27:18.603Z,60.08
2022-10-09T18:30:23.209Z,60.18
2022-10-09T18:33:29.397Z,60.08
2022-10-09T18:36:35.085Z,58.99
2022-10-09T18:39:41.207Z,59.18
2022-10-09T18:42:47.606Z,61.05
2022-10-09T18:45:54.761Z,63.80
2022-10-09T18:49:01.124Z,64.43
2022-10-09T18:52:10.630Z,63.47
2022-10-09T18:55:20.116Z,62.78
2022-10-09T18:58:27.098Z,62.39
2022-10-09T19:01:33.280Z,62.07
2022-10-09T19:04:37.788Z,61.79
2022-10-09T19:07:43.905Z,61.58
2022-10-09T19:10:54.098Z,61.33
2022-10-09T19:14:00.972Z,61.11
2022-10-09T19:17:08.060Z,60.78
2022-10-09T19:20:14.665Z,60.65
2022-10-09T19:23:20.897Z,60.41
2022-10-09T19:26:25.155Z,60.49
2022-10-09T19:29:31.278Z,60.52
2022-10-09T19:32:37.209Z,60.48
2022-10-09T19:35:50.230Z,60.57
2022-10-09T19:38:56.253Z,60.40
2022-10-09T19:42:02.373Z,60.67
2022-10-09T19:45:10.473Z,60.82
2022-10-09T19:48:16.989Z,60.64
2022-10-09T19:51:25.044Z,60.65
2022-10-09T19:54:32.173Z,60.70
2022-10-09T19:57:38.431Z,60.52
2022-10-09T20:00:46.946Z,60.42
2022-10-09T20:03:57.137Z,60.67
2022-10-09T20:07:03.179Z,60.68
2022-10-09T20:10:10.528Z,60.57
2022-10-09T20:13:16.823Z,60.43
2022-10-09T20:16:21.777Z,60.62
2022-10-09T20:19:30.994Z,60.54
2022-10-09T20:22:37.120Z,60.44
2022-10-09T20:25:43.218Z,60.36
2022-10-09T20:28:50.349Z,60.32
2022-10-09T20:31:56.584Z,60.28
2022-10-09T20:35:02.719Z,60.26
2022-10-09T20:38:08.725Z,60.42
2022-10-09T20:41:14.962Z,60.43
2022-10-09T20:44:19.192Z,60.47
2022-10-09T20:47:25.493Z,60.49
2022-10-09T20:50:29.711Z,60.35
2022-10-09T20:53:36.034Z,60.47
2022-10-09T20:56:40.608Z,60.24
2022-10-09T20:59:47.061Z,60.31
2022-10-09T21:02:53.126Z,60.09
2022-10-09T21:05:59.352Z,60.24
2022-10-09T21:09:05.970Z,60.40
2022-10-09T21:12:12.241Z,60.39
2022-10-09T21:15:18.547Z,60.40
2022-10-09T21:18:23.087Z,60.40
2022-10-09T21:21:30.352Z,60.57
2022-10-09T21:24:36.449Z,60.47
2022-10-09T21:27:42.579Z,60.55
2022-10-09T21:30:48.640Z,60.64
2022-10-09T21:33:55.350Z,60.61
2022-10-09T21:37:20.289Z,60.71
2022-10-09T21:40:25.895Z,60.87
2022-10-09T21:43:31.938Z,60.95
2022-10-09T21:46:41.559Z,60.70
2022-10-09T21:49:47.885Z,60.58
2022-10-09T21:52:52.403Z,60.70
2022-10-09T21:55:58.867Z,61.06
2022-10-09T21:59:05.127Z,61.02
2022-10-09T22:02:09.559Z,61.04
2022-10-09T22:05:15.788Z,61.15
2022-10-09T22:08:22.145Z,60.86
2022-10-09T22:11:26.638Z,61.33
2022-10-09T22:14:33.029Z,62.25
2022-10-09T22:17:37.381Z,62.86
2022-10-09T22:20:45.376Z,63.36
2022-10-09T22:23:51.577Z,62.82
2022-10-09T22:26:57.567Z,62.31
2022-10-09T22:30:04.007Z,61.98
2022-10-09T22:33:08.231Z,61.99
2022-10-09T22:36:16.270Z,61.94
2022-10-09T22:39:22.396Z,61.62
2022-10-09T22:42:28.531Z,61.35
2022-10-09T22:45:37.690Z,61.29
2022-10-09T22:48:44.936Z,61.25
2022-10-09T22:51:51.061Z,61.21
2022-10-09T22:54:57.255Z,61.23
2022-10-09T22:58:03.295Z,61.30
2022-10-09T23:01:12.421Z,61.33
2022-10-09T23:04:20.454Z,61.25
2022-10-09T23:07:26.577Z,61.52
2022-10-09T23:10:32.801Z,61.73
2022-10-09T23:13:37.388Z,61.76
2022-10-09T23:16:43.828Z,61.89
2022-10-09T23:19:49.080Z,61.42
2022-10-09T23:22:55.184Z,61.34
2022-10-09T23:26:04.369Z,61.27
2022-10-09T23:29:15.657Z,61.20
2022-10-09T23:32:21.538Z,61.07
2022-10-09T23:35:27.691Z,61.31
2022-10-09T23:38:34.484Z,61.51
2022-10-09T23:41:41.126Z,61.18
2022-10-09T23:44:47.189Z,61.10
2022-10-09T23:47:53.095Z,61.02
2022-10-09T23:50:59.931Z,61.12
2022-10-09T23:54:07.248Z,61.37
2022-10-09T23:57:13.350Z,61.26
